Time;durP1;ratioP1;P1;durP2;ratioP2;P2;SDS_P1;SDS_P2;PMS_P1;PMS_P2;Temp;Humidity;BMP_temperature;BMP_pressure;BME280_temperature;BME280_humidity;BME280_pressure;Samples;Min_cycle;Max_cycle;Signal;HPM_P1;HPM_P2
2021/08/25 00:00:27;;;;;;;;;;;;;;;12.68;81.15;98775.66;1761515;80;25984;-88
2021/08/25 00:02:56;;;;;;;;;;;;;;;12.69;81.12;98790.00;1754262;80;20225;-88
2021/08/25 00:05:32;;;;;;;;;;;;;;;12.75;81.10;98787.41;1770722;80;20199;-88
2021/08/25 00:07:55;;;;;;;;;;;;;;;12.84;81.07;98787.56;1784267;78;24943;-87
2021/08/25 00:10:21;;;;;;;;;;;;;;;12.93;81.04;98782.09;1746702;79;20249;-88
2021/08/25 00:12:48;;;;;;;;;;;;;;;12.94;81.02;98781.15;1791655;79;25746;-88
2021/08/25 00:15:14;;;;;;;;;;;;;;;12.91;80.97;98782.23;1745403;80;24412;-87
2021/08/25 00:17:40;;;;;;;;;;;;;;;12.86;80.94;98782.20;1804724;79;20266;-87
2021/08/25 00:20:12;;;;;;;;;;;;;;;12.85;80.88;98783.99;1789157;79;24820;-88
2021/08/25 00:22:38;;;;;;;;;;;;;;;12.80;80.88;98779.55;1792273;79;22179;-88
2021/08/25 00:25:04;;;;;;;;;;;;;;;12.72;80.84;98774.02;1808349;79;20896;-88
2021/08/25 00:27:30;;;;;;;;;;;;;;;12.70;80.82;98777.24;1807745;79;24455;-87
2021/08/25 00:29:56;;;;;;;;;;;;;;;12.73;80.80;98774.37;1780010;79;20348;-87
2021/08/25 00:32:22;;;;;;;;;;;;;;;12.75;80.80;98772.96;1808365;79;20706;-87
2021/08/25 00:34:48;;;;;;;;;;;;;;;12.79;80.85;98773.09;1807565;79;20849;-88
2021/08/25 00:37:17;;;;;;;;;;;;;;;12.85;80.88;98771.33;1800825;79;26026;-88
2021/08/25 00:39:49;;;;;;;;;;;;;;;12.82;80.91;98771.06;1805661;79;24494;-88
2021/08/25 00:42:15;;;;;;;;;;;;;;;12.84;80.92;98772.28;1805341;79;20532;-88
2021/08/25 00:44:41;;;;;;;;;;;;;;;12.87;80.98;98765.50;1805674;79;20210;-88
2021/08/25 00:47:07;;;;;;;;;;;;;;;12.89;80.97;98766.20;1807419;78;22026;-87
2021/08/25 00:49:33;;;;;;;;;;;;;;;12.88;81.01;98753.55;1810213;78;25956;-88
2021/08/25 00:51:59;;;;;;;;;;;;;;;12.87;81.03;98751.05;1808666;79;20289;-88
2021/08/25 00:54:28;;;;;;;;;;;;;;;12.77;81.06;98744.30;1804368;79;20286;-88
2021/08/25 00:56:54;;;;;;;;;;;;;;;12.65;81.09;98751.80;1807286;79;24770;-88
2021/08/25 00:59:21;;;;;;;;;;;;;;;12.59;81.12;98748.30;1805296;79;20348;-88
2021/08/25 01:02:00;;;;;;;;;;;;;;;12.57;81.14;98748.88;1807144;79;26174;-87
2021/08/25 01:04:34;;;;;;;;;;;;;;;12.66;81.18;98745.57;1807138;79;24045;-88
2021/08/25 01:07:01;;;;;;;;;;;;;;;12.58;81.22;98741.38;1723317;81;20342;-87
2021/08/25 01:09:27;;;;;;;;;;;;;;;12.47;81.25;98742.63;1703305;83;24743;-86
2021/08/25 01:12:01;;;;;;;;;;;;;;;12.35;81.27;98734.32;1755453;80;21988;-86
2021/08/25 01:14:34;;;;;;;;;;;;;;;12.38;81.29;98734.12;1745890;81;26042;-87
2021/08/25 01:17:05;;;;;;;;;;;;;;;12.45;81.34;98732.23;1747487;81;24503;-86
2021/08/25 01:19:34;;;;;;;;;;;;;;;12.38;81.38;98730.18;1754494;80;20575;-86
2021/08/25 01:22:04;;;;;;;;;;;;;;;12.33;81.42;98724.42;1755228;81;25486;-86
2021/08/25 01:24:32;;;;;;;;;;;;;;;12.29;81.47;98727.73;1756225;81;22091;-86
2021/08/25 01:27:00;;;;;;;;;;;;;;;12.26;81.54;98721.41;1761791;80;26026;-86
2021/08/25 01:29:27;;;;;;;;;;;;;;;12.24;81.59;98728.53;1761150;81;24535;-87
2021/08/25 01:31:59;;;;;;;;;;;;;;;12.24;81.63;98725.06;1762123;81;20446;-87
2021/08/25 01:34:25;;;;;;;;;;;;;;;12.22;81.68;98725.17;1757377;81;24840;-87
2021/08/25 01:36:55;;;;;;;;;;;;;;;12.24;81.75;98719.82;1761321;81;20939;-86
2021/08/25 01:39:21;;;;;;;;;;;;;;;12.28;81.83;98716.02;1761360;81;26158;-86
2021/08/25 01:41:56;;;;;;;;;;;;;;;12.37;81.94;98716.69;1758664;81;24431;-86
2021/08/25 01:44:22;;;;;;;;;;;;;;;12.55;82.08;98713.54;1757000;81;20223;-87
2021/08/25 01:46:48;;;;;;;;;;;;;;;12.57;82.17;98712.97;1760870;81;20230;-87
2021/08/25 01:49:15;;;;;;;;;;;;;;;12.56;82.28;98711.28;1760512;81;20337;-87
2021/08/25 01:51:42;;;;;;;;;;;;;;;12.53;82.34;98706.74;1760130;81;26771;-87
2021/08/25 01:54:08;;;;;;;;;;;;;;;12.52;82.38;98708.53;1760653;81;24407;-88
2021/08/25 01:56:34;;;;;;;;;;;;;;;12.61;82.46;98708.31;1764059;81;20500;-87
2021/08/25 01:59:01;;;;;;;;;;;;;;;12.65;82.48;98700.59;1765668;81;24821;-87
2021/08/25 02:01:28;;;;;;;;;;;;;;;12.79;82.54;98700.87;1762737;81;22124;-87
2021/08/25 02:03:54;;;;;;;;;;;;;;;12.75;82.62;98699.43;1757024;81;26085;-88
2021/08/25 02:06:20;;;;;;;;;;;;;;;12.71;82.66;98690.11;1780311;79;24260;-87
2021/08/25 02:08:46;;;;;;;;;;;;;;;12.70;82.70;98687.96;1808511;79;20261;-87
2021/08/25 02:11:12;;;;;;;;;;;;;;;12.67;82.74;98682.92;1796907;79;24783;-87
2021/08/25 02:13:38;;;;;;;;;;;;;;;12.65;82.75;98685.31;1772648;79;20242;-87
2021/08/25 02:16:04;;;;;;;;;;;;;;;12.65;82.79;98689.25;1796018;79;20880;-87
2021/08/25 02:18:36;;;;;;;;;;;;;;;12.64;82.82;98687.09;1797873;79;20888;-87
2021/08/25 02:21:02;;;;;;;;;;;;;;;12.66;82.86;98683.86;1798120;77;20290;-87
2021/08/25 02:23:28;;;;;;;;;;;;;;;12.85;82.88;98686.81;1798366;77;20293;-87
2021/08/25 02:25:54;;;;;;;;;;;;;;;12.97;82.95;98687.20;1798574;79;21941;-88
2021/08/25 02:28:20;;;;;;;;;;;;;;;12.93;82.96;98677.86;1769505;79;21000;-88
2021/08/25 02:30:46;;;;;;;;;;;;;;;12.97;83.00;98667.50;1782079;79;20846;-88
2021/08/25 02:33:12;;;;;;;;;;;;;;;13.03;83.04;98681.13;1739460;80;20798;-88
2021/08/25 02:35:38;;;;;;;;;;;;;;;12.91;83.02;98679.78;1789638;78;24807;-87
2021/08/25 02:38:04;;;;;;;;;;;;;;;12.89;83.01;98677.73;1786550;79;21958;-88
2021/08/25 02:40:31;;;;;;;;;;;;;;;13.03;83.02;98674.08;1786189;79;26075;-88
2021/08/25 02:42:57;;;;;;;;;;;;;;;13.13;83.04;98676.40;1786814;79;24390;-88
2021/08/25 02:45:23;;;;;;;;;;;;;;;13.11;83.04;98671.69;1785162;79;20247;-88
2021/08/25 02:47:49;;;;;;;;;;;;;;;13.07;83.03;98670.73;1787503;79;24739;-88
2021/08/25 02:50:15;;;;;;;;;;;;;;;12.97;83.00;98673.23;1786756;79;20836;-88
2021/08/25 02:52:41;;;;;;;;;;;;;;;12.92;82.98;98677.52;1755440;79;21135;-87
2021/08/25 02:55:07;;;;;;;;;;;;;;;12.81;82.95;98670.92;1771753;79;20289;-85
2021/08/25 02:57:33;;;;;;;;;;;;;;;12.75;82.93;98663.50;1736008;80;20632;-86
2021/08/25 03:00:06;;;;;;;;;;;;;;;12.73;82.91;98663.24;1739740;80;24827;-86
2021/08/25 03:02:35;;;;;;;;;;;;;;;12.76;82.92;98669.59;1786404;79;22649;-88
2021/08/25 03:05:10;;;;;;;;;;;;;;;12.79;82.98;98670.19;1789052;79;25970;-88
2021/08/25 03:07:36;;;;;;;;;;;;;;;12.81;83.01;98682.75;1786833;79;24515;-88
2021/08/25 03:10:04;;;;;;;;;;;;;;;12.87;83.05;98688.83;1788862;79;20274;-88
2021/08/25 03:12:43;;;;;;;;;;;;;;;12.97;83.09;98684.58;1787041;79;24918;-88
2021/08/25 03:15:10;;;;;;;;;;;;;;;12.96;83.13;98684.21;1786546;79;21961;-88
2021/08/25 03:17:36;;;;;;;;;;;;;;;13.00;83.18;98680.86;1786887;79;26023;-87
2021/08/25 03:20:04;;;;;;;;;;;;;;;12.95;83.19;98683.00;1787340;79;24484;-87
2021/08/25 03:22:42;;;;;;;;;;;;;;;12.97;83.20;98686.37;1786388;79;20318;-87
2021/08/25 03:25:15;;;;;;;;;;;;;;;12.98;83.22;98681.48;1788165;79;24756;-87
2021/08/25 03:27:41;;;;;;;;;;;;;;;13.04;83.26;98674.92;1786454;79;22260;-87
2021/08/25 03:30:07;;;;;;;;;;;;;;;12.99;83.29;98678.71;1764054;80;25931;-87
2021/08/25 03:32:33;;;;;;;;;;;;;;;13.06;83.29;98674.31;1788001;79;24358;-87
2021/08/25 03:34:59;;;;;;;;;;;;;;;13.09;83.30;98680.16;1786350;79;20374;-87
2021/08/25 03:37:25;;;;;;;;;;;;;;;13.10;83.30;98681.84;1785691;79;24732;-87
2021/08/25 03:39:51;;;;;;;;;;;;;;;13.13;83.33;98672.45;1787671;79;20864;-88
2021/08/25 03:42:17;;;;;;;;;;;;;;;13.12;83.36;98676.03;1787589;78;20941;-87
2021/08/25 03:44:44;;;;;;;;;;;;;;;13.04;83.34;98669.16;1786952;79;24385;-88
2021/08/25 03:47:15;;;;;;;;;;;;;;;12.95;83.31;98666.77;1784090;79;20294;-88
2021/08/25 03:49:42;;;;;;;;;;;;;;;12.89;83.30;98667.70;1783901;79;24742;-87
2021/08/25 03:52:11;;;;;;;;;;;;;;;12.90;83.31;98667.59;1786839;79;21419;-87
2021/08/25 03:54:38;;;;;;;;;;;;;;;12.94;83.36;98669.03;1786725;79;26158;-88
2021/08/25 03:57:04;;;;;;;;;;;;;;;12.96;83.37;98667.61;1787382;79;23945;-88
2021/08/25 03:59:36;;;;;;;;;;;;;;;12.94;83.42;98661.15;1786572;79;20338;-88
2021/08/25 04:02:10;;;;;;;;;;;;;;;12.92;83.43;98670.12;1786285;78;24893;-89
2021/08/25 04:04:38;;;;;;;;;;;;;;;12.89;83.46;98665.91;1787376;79;22003;-88
2021/08/25 04:07:04;;;;;;;;;;;;;;;12.88;83.50;98669.49;1795255;79;26013;-87
2021/08/25 04:09:34;;;;;;;;;;;;;;;12.88;83.52;98672.59;1807083;79;20308;-88
2021/08/25 04:12:00;;;;;;;;;;;;;;;12.86;83.55;98672.73;1808519;79;20405;-87
2021/08/25 04:14:39;;;;;;;;;;;;;;;12.86;83.57;98670.10;1808277;79;20765;-87
2021/08/25 04:17:05;;;;;;;;;;;;;;;12.85;83.60;98669.73;1778084;79;36119;-86
2021/08/25 04:19:31;;;;;;;;;;;;;;;12.83;83.62;98665.53;1806819;79;26008;-86
2021/08/25 04:21:57;;;;;;;;;;;;;;;12.81;83.64;98664.84;1808530;78;20852;-86
2021/08/25 04:24:31;;;;;;;;;;;;;;;12.81;83.68;98658.27;1808890;79;20261;-86
2021/08/25 04:26:57;;;;;;;;;;;;;;;12.84;83.72;98658.86;1808602;79;25491;-87
2021/08/25 04:29:25;;;;;;;;;;;;;;;12.86;83.79;98658.28;1805290;79;22593;-86
2021/08/25 04:31:51;;;;;;;;;;;;;;;12.89;83.82;98659.34;1808706;79;25945;-87
2021/08/25 04:34:21;;;;;;;;;;;;;;;13.05;83.88;98660.33;1808550;79;24430;-87
2021/08/25 04:36:50;;;;;;;;;;;;;;;13.22;83.93;98661.23;1808174;79;20292;-86
2021/08/25 04:39:16;;;;;;;;;;;;;;;13.34;83.98;98664.70;1805952;79;24812;-86
2021/08/25 04:41:42;;;;;;;;;;;;;;;13.29;84.00;98653.72;1808709;79;20872;-86
2021/08/25 04:44:08;;;;;;;;;;;;;;;13.22;84.01;98657.29;1805669;78;20938;-86
2021/08/25 04:46:43;;;;;;;;;;;;;;;13.13;84.03;98654.53;1759619;80;25034;-86
2021/08/25 04:49:13;;;;;;;;;;;;;;;13.08;84.02;98646.98;1760529;78;20201;-87
2021/08/25 04:51:46;;;;;;;;;;;;;;;13.07;84.04;98649.72;1759054;80;24826;-87
2021/08/25 04:54:13;;;;;;;;;;;;;;;13.07;84.05;98649.72;1761162;80;22051;-86
2021/08/25 04:56:46;;;;;;;;;;;;;;;13.04;84.10;98646.83;1760316;80;26053;-86
2021/08/25 04:59:21;;;;;;;;;;;;;;;13.03;84.12;98644.34;1792872;78;24439;-87
2021/08/25 05:01:47;;;;;;;;;;;;;;;13.04;84.14;98643.39;1799142;78;20225;-87
2021/08/25 05:04:13;;;;;;;;;;;;;;;13.03;84.18;98649.59;1811213;78;24773;-86
2021/08/25 05:06:39;;;;;;;;;;;;;;;13.03;84.21;98644.34;1762462;79;20337;-86
2021/08/25 05:09:11;;;;;;;;;;;;;;;13.06;84.26;98641.47;1746392;80;20973;-86
2021/08/25 05:11:43;;;;;;;;;;;;;;;13.06;84.32;98625.70;1730690;80;24408;-86
2021/08/25 05:14:09;;;;;;;;;;;;;;;13.22;84.37;98628.37;1755657;80;20296;-87
2021/08/25 05:16:35;;;;;;;;;;;;;;;13.20;84.43;98632.09;1755152;80;20206;-87
2021/08/25 05:19:01;;;;;;;;;;;;;;;13.16;84.44;98630.63;1790592;79;20211;-87
2021/08/25 05:21:27;;;;;;;;;;;;;;;13.13;84.46;98637.45;1751796;80;21118;-86
2021/08/25 05:23:56;;;;;;;;;;;;;;;13.11;84.49;98634.06;1789213;79;20334;-87
2021/08/25 05:26:23;;;;;;;;;;;;;;;13.13;84.53;98633.52;1757110;80;20231;-87
2021/08/25 05:28:50;;;;;;;;;;;;;;;13.14;84.56;98633.88;1747952;80;24764;-87
2021/08/25 05:31:16;;;;;;;;;;;;;;;13.16;84.61;98631.95;1748329;80;21982;-86
2021/08/25 05:33:42;;;;;;;;;;;;;;;13.20;84.66;98628.16;1789830;79;21036;-86
2021/08/25 05:36:08;;;;;;;;;;;;;;;13.22;84.70;98630.17;1752929;80;24491;-87
2021/08/25 05:38:34;;;;;;;;;;;;;;;13.27;84.74;98629.33;1795821;79;20352;-86
2021/08/25 05:41:00;;;;;;;;;;;;;;;13.33;84.80;98631.01;1751189;80;24708;-86
2021/08/25 05:43:26;;;;;;;;;;;;;;;13.48;84.87;98627.66;1794130;79;21973;-87
2021/08/25 05:45:53;;;;;;;;;;;;;;;13.55;84.92;98614.39;1788382;79;21089;-86
2021/08/25 05:48:21;;;;;;;;;;;;;;;13.69;84.99;98613.31;1794032;79;24491;-86
2021/08/25 05:50:47;;;;;;;;;;;;;;;13.68;85.03;98612.47;1752971;80;20227;-86
2021/08/25 05:53:13;;;;;;;;;;;;;;;13.68;85.06;98612.47;1793440;79;24791;-86
2021/08/25 05:55:39;;;;;;;;;;;;;;;13.83;85.08;98615.19;1756535;80;21959;-87
2021/08/25 05:58:06;;;;;;;;;;;;;;;13.83;85.09;98616.50;1753282;79;25943;-87
2021/08/25 06:00:35;;;;;;;;;;;;;;;13.85;85.09;98613.75;1755889;80;24467;-86
2021/08/25 06:03:01;;;;;;;;;;;;;;;13.82;85.08;98617.45;1795032;79;20279;-86
2021/08/25 06:05:27;;;;;;;;;;;;;;;13.79;85.06;98614.24;1792914;79;20797;-87
2021/08/25 06:07:53;;;;;;;;;;;;;;;13.78;85.04;98619.14;1784883;78;22027;-87
2021/08/25 06:10:20;;;;;;;;;;;;;;;13.76;85.03;98620.57;1729543;81;26242;-87
2021/08/25 06:12:46;;;;;;;;;;;;;;;13.78;85.02;98623.09;1772044;79;24475;-85
2021/08/25 06:15:12;;;;;;;;;;;;;;;13.72;85.01;98625.73;1738467;80;20897;-85
2021/08/25 06:17:43;;;;;;;;;;;;;;;13.71;84.99;98628.47;1745241;80;20266;-84
2021/08/25 06:20:09;;;;;;;;;;;;;;;13.74;84.98;98634.34;1737923;80;21990;-85
2021/08/25 06:22:35;;;;;;;;;;;;;;;13.73;84.98;98637.09;1739242;80;26014;-85
2021/08/25 06:25:03;;;;;;;;;;;;;;;13.76;85.00;98640.77;1729640;80;21396;-86
2021/08/25 06:27:29;;;;;;;;;;;;;;;13.81;85.02;98643.39;1735562;80;20239;-86
2021/08/25 06:29:55;;;;;;;;;;;;;;;13.86;85.06;98638.23;1744593;80;20299;-85
2021/08/25 06:32:21;;;;;;;;;;;;;;;13.96;85.07;98635.25;1728045;80;20362;-87
2021/08/25 06:34:47;;;;;;;;;;;;;;;13.98;85.08;98637.27;1776473;79;21019;-87
2021/08/25 06:37:13;;;;;;;;;;;;;;;13.95;85.09;98641.47;1727837;80;20823;-87
2021/08/25 06:39:39;;;;;;;;;;;;;;;14.06;85.07;98642.77;1761249;79;21008;-87
2021/08/25 06:42:05;;;;;;;;;;;;;;;14.29;85.09;98638.27;1728447;80;24719;-87
2021/08/25 06:44:31;;;;;;;;;;;;;;;14.39;85.10;98645.31;1763520;79;20238;-87
2021/08/25 06:46:57;;;;;;;;;;;;;;;14.45;85.08;98638.23;1787203;79;25977;-87
2021/08/25 06:49:23;;;;;;;;;;;;;;;14.54;85.06;98634.83;1787432;79;24468;-87
2021/08/25 06:51:49;;;;;;;;;;;;;;;14.63;85.00;98639.80;1788822;79;20282;-87
2021/08/25 06:54:15;;;;;;;;;;;;;;;14.65;84.95;98638.73;1754934;79;24694;-87
2021/08/25 06:56:41;;;;;;;;;;;;;;;14.71;84.86;98644.45;1785364;79;22103;-87
2021/08/25 06:59:07;;;;;;;;;;;;;;;14.74;84.78;98638.91;1787375;78;25925;-88
2021/08/25 07:01:33;;;;;;;;;;;;;;;14.66;84.63;98631.67;1787425;79;20852;-88
2021/08/25 07:03:59;;;;;;;;;;;;;;;14.68;84.53;98634.15;1787187;79;20235;-88
2021/08/25 07:06:25;;;;;;;;;;;;;;;14.61;84.43;98629.90;1788172;79;20563;-88
2021/08/25 07:08:53;;;;;;;;;;;;;;;14.56;84.28;98630.25;1785995;79;22662;-88
2021/08/25 07:11:19;;;;;;;;;;;;;;;14.54;84.20;98626.93;1787619;79;26198;-85
2021/08/25 07:13:50;;;;;;;;;;;;;;;14.65;84.13;98626.88;1785869;79;25048;-85
2021/08/25 07:16:20;;;;;;;;;;;;;;;14.59;84.07;98623.44;1785841;79;20510;-86
2021/08/25 07:18:47;;;;;;;;;;;;;;;14.50;83.86;98625.52;1786982;78;25368;-86
2021/08/25 07:21:14;;;;;;;;;;;;;;;14.55;83.77;98619.39;1786762;79;22079;-85
2021/08/25 07:23:40;;;;;;;;;;;;;;;14.57;83.63;98622.71;1787009;79;26075;-85
2021/08/25 07:26:06;;;;;;;;;;;;;;;14.75;83.49;98616.88;1787229;79;24407;-85
2021/08/25 07:28:32;;;;;;;;;;;;;;;14.84;83.38;98616.93;1787473;79;20325;-85
2021/08/25 07:30:59;;;;;;;;;;;;;;;14.85;83.27;98615.97;1787164;79;20266;-85
2021/08/25 07:33:25;;;;;;;;;;;;;;;14.80;83.13;98622.11;1787446;79;21932;-85
2021/08/25 07:35:51;;;;;;;;;;;;;;;14.76;82.93;98613.28;1786882;79;25952;-85
2021/08/25 07:38:17;;;;;;;;;;;;;;;14.79;82.73;98614.33;1786649;79;24419;-85
2021/08/25 07:40:44;;;;;;;;;;;;;;;14.83;82.58;98610.50;1787148;79;20263;-85
2021/08/25 07:43:12;;;;;;;;;;;;;;;14.85;82.41;98605.44;1786661;79;24914;-85
2021/08/25 07:45:40;;;;;;;;;;;;;;;14.95;82.23;98604.16;1786402;79;21974;-86
2021/08/25 07:48:06;;;;;;;;;;;;;;;15.07;82.04;98605.28;1786370;79;25976;-85
2021/08/25 07:50:32;;;;;;;;;;;;;;;15.05;81.87;98606.39;1785559;79;24440;-85
2021/08/25 07:52:58;;;;;;;;;;;;;;;14.96;81.61;98602.72;1786514;79;20596;-86
2021/08/25 07:55:24;;;;;;;;;;;;;;;14.90;81.34;98607.20;1785300;79;24800;-86
2021/08/25 07:57:50;;;;;;;;;;;;;;;14.88;81.07;98605.19;1786577;79;22153;-86
2021/08/25 08:00:16;;;;;;;;;;;;;;;14.92;80.83;98605.75;1791439;78;21243;-86
2021/08/25 08:02:42;;;;;;;;;;;;;;;14.97;80.67;98604.88;1786400;79;24671;-86
2021/08/25 08:05:08;;;;;;;;;;;;;;;15.07;80.51;98596.53;1786923;79;20251;-86
2021/08/25 08:07:34;;;;;;;;;;;;;;;15.14;80.39;98599.48;1788927;79;20285;-86
2021/08/25 08:10:02;;;;;;;;;;;;;;;15.13;80.17;98594.70;1800967;79;20352;-88
2021/08/25 08:12:29;;;;;;;;;;;;;;;15.15;79.92;98593.25;1800608;79;26989;-89
2021/08/25 08:14:55;;;;;;;;;;;;;;;15.08;79.61;98587.19;1798290;79;24793;-89
2021/08/25 08:17:30;;;;;;;;;;;;;;;15.12;79.34;98587.75;1793310;79;20583;-88
2021/08/25 08:19:57;;;;;;;;;;;;;;;15.10;79.00;98580.95;1798314;79;24776;-89
2021/08/25 08:22:22;;;;;;;;;;;;;;;15.19;78.73;98579.67;1799472;79;21989;-89
2021/08/25 08:24:48;;;;;;;;;;;;;;;15.29;78.56;98570.00;1800603;79;25929;-89
2021/08/25 08:27:14;;;;;;;;;;;;;;;15.44;78.46;98572.61;1798649;79;24341;-89
2021/08/25 08:29:40;;;;;;;;;;;;;;;15.45;78.28;98561.58;1769494;79;20818;-87
2021/08/25 08:32:08;;;;;;;;;;;;;;;15.40;77.98;98565.94;1794642;79;24875;-85
2021/08/25 08:34:35;;;;;;;;;;;;;;;15.38;77.71;98562.59;1784452;79;22320;-85
2021/08/25 08:37:02;;;;;;;;;;;;;;;15.32;77.36;98563.16;1738490;80;26221;-85
2021/08/25 08:39:28;;;;;;;;;;;;;;;15.30;77.02;98557.64;1732644;81;24533;-85
2021/08/25 08:41:54;;;;;;;;;;;;;;;15.38;76.77;98556.00;1752515;78;20201;-85
2021/08/25 08:44:21;;;;;;;;;;;;;;;15.42;76.59;98556.10;1751982;80;20359;-85
2021/08/25 08:46:51;;;;;;;;;;;;;;;15.37;76.26;98553.03;1799496;79;22045;-84
2021/08/25 08:49:17;;;;;;;;;;;;;;;15.38;75.95;98553.36;1799657;78;25987;-84
2021/08/25 08:51:43;;;;;;;;;;;;;;;15.42;75.71;98550.83;1799940;79;24368;-84
2021/08/25 08:54:09;;;;;;;;;;;;;;;15.47;75.48;98548.62;1797730;79;20204;-85
2021/08/25 08:56:35;;;;;;;;;;;;;;;15.48;75.27;98542.38;1801562;78;20828;-85
2021/08/25 08:59:01;;;;;;;;;;;;;;;15.49;75.06;98537.94;1800112;78;20806;-85
2021/08/25 09:01:28;;;;;;;;;;;;;;;15.48;74.86;98534.95;1800763;78;26021;-85
2021/08/25 09:03:54;;;;;;;;;;;;;;;15.47;74.68;98535.43;1799882;79;24506;-85
2021/08/25 09:06:20;;;;;;;;;;;;;;;15.46;74.55;98532.44;1799680;79;20266;-85
2021/08/25 09:08:48;;;;;;;;;;;;;;;15.44;74.28;98532.20;1798249;79;20273;-85
2021/08/25 09:11:17;;;;;;;;;;;;;;;15.45;73.95;98528.13;1796653;78;22031;-85
2021/08/25 09:13:48;;;;;;;;;;;;;;;15.53;73.65;98526.17;1801285;78;25930;-85
2021/08/25 09:16:26;;;;;;;;;;;;;;;15.56;73.40;98518.45;1799548;79;24474;-85
2021/08/25 09:19:05;;;;;;;;;;;;;;;15.59;73.13;98516.40;1757179;80;20234;-85
2021/08/25 09:21:35;;;;;;;;;;;;;;;15.64;72.88;98515.98;1714881;82;25514;-85
2021/08/25 09:24:01;;;;;;;;;;;;;;;15.75;72.70;98517.18;1745427;82;22069;-85
2021/08/25 09:26:27;;;;;;;;;;;;;;;15.88;72.54;98511.97;1745108;82;25819;-85
2021/08/25 09:28:53;;;;;;;;;;;;;;;15.95;72.39;98506.97;1745772;80;24520;-85
2021/08/25 09:31:19;;;;;;;;;;;;;;;15.96;72.12;98507.33;1761541;79;20294;-85
2021/08/25 09:33:47;;;;;;;;;;;;;;;15.99;71.76;98504.39;1758983;80;24569;-85
2021/08/25 09:36:14;;;;;;;;;;;;;;;16.14;71.59;98503.02;1760206;80;22148;-86
2021/08/25 09:38:42;;;;;;;;;;;;;;;16.14;71.36;98500.38;1756420;80;26670;-85
2021/08/25 09:41:10;;;;;;;;;;;;;;;16.09;71.08;98499.14;1758438;78;24450;-85
2021/08/25 09:43:44;;;;;;;;;;;;;;;16.04;70.83;98503.48;1751390;81;20225;-85
2021/08/25 09:46:12;;;;;;;;;;;;;;;16.03;70.69;98493.92;1791753;79;24194;-86
2021/08/25 09:48:39;;;;;;;;;;;;;;;16.10;70.46;98495.02;1793050;79;21440;-85
2021/08/25 09:51:06;;;;;;;;;;;;;;;16.28;70.33;98492.50;1796231;79;26167;-85
2021/08/25 09:53:33;;;;;;;;;;;;;;;16.41;70.11;98486.44;1750235;80;24434;-85
2021/08/25 09:56:05;;;;;;;;;;;;;;;16.55;69.88;98483.33;1806956;79;20460;-85
2021/08/25 09:58:28;;;;;;;;;;;;;;;16.70;69.67;98476.64;1799071;79;24204;-85
2021/08/25 10:00:54;;;;;;;;;;;;;;;16.89;69.47;98473.10;1798448;79;20372;-85
2021/08/25 10:03:21;;;;;;;;;;;;;;;17.03;69.27;98473.09;1756551;79;26091;-86
2021/08/25 10:05:48;;;;;;;;;;;;;;;17.13;69.03;98473.88;1698462;82;24638;-86
2021/08/25 10:08:15;;;;;;;;;;;;;;;17.20;68.79;98474.13;1694774;82;20268;-86
2021/08/25 10:10:42;;;;;;;;;;;;;;;17.16;68.52;98473.59;1723342;81;24804;-87
2021/08/25 10:13:14;;;;;;;;;;;;;;;17.22;68.36;98476.14;1759315;80;22063;-87
2021/08/25 10:15:44;;;;;;;;;;;;;;;17.30;68.25;98478.38;1721308;82;26102;-88
2021/08/25 10:18:23;;;;;;;;;;;;;;;17.34;68.16;98471.00;1760238;79;24416;-88
2021/08/25 10:20:58;;;;;;;;;;;;;;;17.38;68.06;98467.06;1717261;83;20441;-87
2021/08/25 10:23:46;;;;;;;;;;;;;;;17.49;67.94;98464.20;1722608;82;25436;-87
2021/08/25 10:26:12;;;;;;;;;;;;;;;17.61;67.91;98468.34;1722210;82;21982;-87
2021/08/25 10:29:00;;;;;;;;;;;;;;;17.67;67.82;98461.13;1746251;80;26024;-87
2021/08/25 10:31:44;;;;;;;;;;;;;;;17.76;67.75;98457.56;1746445;82;24417;-87
2021/08/25 10:34:17;;;;;;;;;;;;;;;17.93;67.65;98450.59;1746299;82;20171;-87
2021/08/25 10:36:43;;;;;;;;;;;;;;;17.97;67.57;98451.94;1745934;82;24823;-86
2021/08/25 10:39:28;;;;;;;;;;;;;;;17.96;67.38;98447.63;1733458;82;22163;-86
2021/08/25 10:41:55;;;;;;;;;;;;;;;18.06;67.19;98450.17;1732858;82;26724;-86
2021/08/25 10:44:40;;;;;;;;;;;;;;;18.13;66.99;98443.28;1744499;81;24506;-86
2021/08/25 10:47:10;;;;;;;;;;;;;;;18.15;66.75;98440.84;1745189;82;20235;-86
2021/08/25 10:49:41;;;;;;;;;;;;;;;18.20;66.48;98440.37;1745243;80;24976;-87
2021/08/25 10:52:18;;;;;;;;;;;;;;;18.30;66.28;98431.33;1746133;81;22054;-86
2021/08/25 10:57:32;;;;;;;;;;;;;;;18.26;65.72;98427.83;1759480;80;25787;-88
2021/08/25 11:00:08;;;;;;;;;;;;;;;18.11;65.41;98420.11;1753340;80;20315;-88
2021/08/25 11:02:38;;;;;;;;;;;;;;;17.95;65.11;98415.02;1750567;80;24750;-88
2021/08/25 11:05:04;;;;;;;;;;;;;;;17.80;64.80;98417.88;1752402;80;21913;-88
2021/08/25 11:07:30;;;;;;;;;;;;;;;17.73;64.51;98408.87;1756942;80;25954;-88
2021/08/25 11:09:56;;;;;;;;;;;;;;;17.65;64.15;98406.66;1746862;81;24498;-88
2021/08/25 11:12:23;;;;;;;;;;;;;;;17.60;63.81;98400.99;1752887;81;20247;-88
2021/08/25 11:14:50;;;;;;;;;;;;;;;17.59;63.54;98398.80;1711792;82;24733;-88
2021/08/25 11:17:18;;;;;;;;;;;;;;;17.50;63.08;98397.91;1713357;82;22866;-88
2021/08/25 11:19:45;;;;;;;;;;;;;;;17.41;62.67;98391.34;1715176;82;25466;-89
2021/08/25 11:22:16;;;;;;;;;;;;;;;17.55;62.52;98389.52;1730786;82;24448;-88
2021/08/25 11:24:43;;;;;;;;;;;;;;;17.76;62.50;98386.57;1728088;82;20224;-88
2021/08/25 11:27:26;;;;;;;;;;;;;;;17.97;62.48;98393.68;1728117;82;24768;-89
2021/08/25 11:30:00;;;;;;;;;;;;;;;18.11;62.39;98390.45;1726860;82;22078;-90
2021/08/25 11:32:28;;;;;;;;;;;;;;;18.09;62.09;98391.13;1732974;81;26806;-89
2021/08/25 11:34:54;;;;;;;;;;;;;;;18.11;61.85;98386.48;1728258;82;24487;-89
2021/08/25 11:37:23;;;;;;;;;;;;;;;18.18;61.67;98380.08;1725583;81;20505;-89
2021/08/25 11:39:57;;;;;;;;;;;;;;;18.22;61.50;98378.80;1728797;81;24769;-89
2021/08/25 11:42:28;;;;;;;;;;;;;;;18.16;61.27;98375.45;1728667;81;22058;-89
2021/08/25 11:44:57;;;;;;;;;;;;;;;18.16;61.08;98378.93;1713297;82;26526;-89
2021/08/25 11:47:23;;;;;;;;;;;;;;;18.26;60.99;98381.47;1732985;81;24360;-86
2021/08/25 11:49:57;;;;;;;;;;;;;;;18.41;60.94;98375.91;1730770;82;20286;-86
2021/08/25 11:52:33;;;;;;;;;;;;;;;18.56;60.87;98369.55;1731238;82;24758;-86
2021/08/25 11:55:02;;;;;;;;;;;;;;;18.78;60.77;98372.95;1730760;82;21973;-86
2021/08/25 11:57:41;;;;;;;;;;;;;;;19.07;60.76;98369.91;1749958;81;26905;-86
2021/08/25 12:00:15;;;;;;;;;;;;;;;19.29;60.73;98363.98;1761321;80;25277;-89
2021/08/25 12:02:54;;;;;;;;;;;;;;;19.35;60.59;98358.03;1767906;80;20469;-90
2021/08/25 12:05:25;;;;;;;;;;;;;;;19.37;60.45;98363.14;1765456;80;25428;-90
2021/08/25 12:07:59;;;;;;;;;;;;;;;19.35;60.23;98357.19;1774523;80;22060;-89
2021/08/25 12:10:25;;;;;;;;;;;;;;;19.24;59.98;98357.02;1724078;82;26039;-89
2021/08/25 12:12:51;;;;;;;;;;;;;;;19.23;59.85;98353.53;1723927;82;24383;-90
2021/08/25 12:15:36;;;;;;;;;;;;;;;19.21;59.64;98353.34;1728006;82;20247;-90
2021/08/25 12:18:04;;;;;;;;;;;;;;;19.13;59.41;98353.34;1703289;83;24834;-89
2021/08/25 12:20:35;;;;;;;;;;;;;;;19.04;59.20;98351.64;1692198;83;21982;-89
2021/08/25 12:23:02;;;;;;;;;;;;;;;19.03;59.01;98348.19;1685505;83;26724;-90
2021/08/25 12:25:35;;;;;;;;;;;;;;;18.99;58.83;98342.02;1741759;81;24508;-90
2021/08/25 12:28:01;;;;;;;;;;;;;;;18.86;58.55;98337.70;1764178;80;20526;-89
2021/08/25 12:30:29;;;;;;;;;;;;;;;18.86;58.32;98334.55;1727234;82;20219;-89
2021/08/25 12:32:55;;;;;;;;;;;;;;;18.87;58.17;98340.69;1723997;82;22074;-89
2021/08/25 12:35:24;;;;;;;;;;;;;;;18.86;58.03;98337.20;1726469;82;20996;-89
2021/08/25 12:37:56;;;;;;;;;;;;;;;19.02;57.91;98335.92;1739156;81;24530;-89
2021/08/25 12:40:24;;;;;;;;;;;;;;;19.27;57.91;98333.28;1746568;81;20258;-87
2021/08/25 12:42:52;;;;;;;;;;;;;;;19.46;57.82;98329.87;1744791;81;24783;-87
2021/08/25 12:45:29;;;;;;;;;;;;;;;19.47;57.59;98323.56;1745700;81;21952;-87
2021/08/25 12:47:56;;;;;;;;;;;;;;;19.50;57.46;98323.23;1741567;82;26012;-87
2021/08/25 12:50:23;;;;;;;;;;;;;;;19.51;57.34;98316.92;1769765;80;24440;-89
2021/08/25 12:52:52;;;;;;;;;;;;;;;19.36;57.08;98321.70;1745277;80;20489;-89
2021/08/25 12:55:18;;;;;;;;;;;;;;;19.10;56.75;98313.86;1745103;80;24794;-90